createdAt,value
2019-04-27T06:24:14.638Z,0.90
2019-04-27T06:29:15.516Z,0.73
2019-04-27T06:34:16.384Z,1.17
2019-04-27T06:39:20.240Z,0.80
2019-04-27T06:44:20.165Z,1.10
2019-04-27T06:49:21.029Z,0.90
2019-04-27T06:54:21.892Z,1.20
2019-04-27T06:59:23.048Z,1.20
2019-04-27T07:04:23.898Z,1.30
2019-04-27T07:09:24.768Z,1.00
2019-04-27T07:14:25.646Z,1.30
2019-04-27T07:19:28.760Z,1.37
2019-04-27T07:24:29.684Z,1.70
2019-04-27T07:29:31.010Z,1.43
2019-04-27T07:34:32.385Z,1.57
2019-04-27T07:39:33.260Z,1.67
2019-04-27T07:44:36.052Z,1.50
2019-04-27T07:49:39.101Z,1.13
2019-04-27T07:54:40.950Z,1.80
2019-04-27T07:59:42.248Z,1.10
2019-04-27T08:04:43.307Z,1.37
2019-04-27T08:09:44.177Z,1.40
2019-04-27T08:14:45.156Z,1.10
2019-04-27T08:19:46.024Z,1.27
2019-04-27T08:24:46.897Z,1.03
2019-04-27T08:29:49.703Z,1.00
2019-04-27T08:34:50.555Z,0.87
2019-04-27T08:39:51.436Z,1.10
2019-04-27T08:44:52.321Z,0.90
2019-04-27T08:49:53.188Z,0.80
2019-04-27T08:54:54.480Z,0.93
2019-04-27T08:59:55.334Z,0.90
2019-04-27T09:04:56.202Z,0.90
2019-04-27T09:10:05.070Z,1.00
2019-04-27T09:15:10.852Z,1.00
2019-04-27T09:20:22.912Z,0.63
2019-04-27T09:25:23.795Z,1.00
2019-04-27T09:30:24.652Z,1.30
2019-04-27T09:35:26.408Z,1.47
2019-04-27T09:40:28.275Z,1.00
2019-04-27T09:45:29.263Z,1.20
2019-04-27T09:50:30.135Z,1.03
2019-04-27T09:55:31.011Z,1.60
2019-04-27T10:00:32.012Z,1.37
2019-04-27T10:05:32.880Z,1.30
2019-04-27T10:10:33.861Z,1.03
2019-04-27T10:15:35.639Z,1.27
2019-04-27T10:20:40.512Z,1.50
2019-04-27T10:25:39.472Z,1.17
2019-04-27T10:30:40.351Z,1.20
2019-04-27T10:35:41.320Z,1.23
2019-04-27T10:40:42.239Z,1.23
2019-04-27T10:45:43.235Z,0.93
2019-04-27T10:50:44.093Z,1.00
2019-04-27T10:55:46.349Z,0.70
2019-04-27T11:00:52.603Z,0.80
2019-04-27T11:06:07.352Z,0.87
2019-04-27T11:11:08.208Z,0.90
2019-04-27T11:16:09.192Z,1.13
2019-04-27T11:21:10.048Z,1.00
2019-04-27T11:26:10.919Z,0.90
2019-04-27T11:31:11.896Z,1.07
2019-04-27T11:36:25.492Z,1.30
2019-04-27T11:41:26.501Z,1.50
2019-04-27T11:46:27.912Z,1.60
2019-04-27T11:51:28.772Z,1.00
2019-04-27T11:56:29.942Z,1.30
2019-04-27T12:01:31.163Z,1.70
2019-04-27T12:06:32.030Z,1.53
2019-04-27T12:11:32.904Z,1.70
2019-04-27T12:16:33.776Z,1.73
2019-04-27T12:21:36.185Z,1.60
2019-04-27T12:26:57.423Z,1.83
2019-04-27T12:31:58.733Z,1.50
2019-04-27T12:36:59.608Z,1.27
2019-04-27T12:42:00.577Z,1.80
2019-04-27T12:47:02.651Z,1.50
2019-04-27T12:52:05.860Z,1.50
2019-04-27T12:57:20.631Z,1.63
2019-04-27T13:02:22.541Z,1.67
2019-04-27T13:07:23.519Z,1.50
2019-04-27T13:12:25.426Z,2.10
2019-04-27T13:17:27.780Z,1.80
2019-04-27T13:22:28.751Z,1.90
2019-04-27T13:27:29.736Z,1.80
2019-04-27T13:32:30.612Z,2.30
2019-04-27T13:37:39.198Z,2.30
2019-04-27T13:42:45.159Z,2.30
2019-04-27T13:47:47.949Z,2.37
2019-04-27T13:52:48.820Z,1.97
2019-04-27T13:57:50.682Z,1.60
2019-04-27T14:02:53.471Z,2.03
2019-04-27T14:07:54.457Z,1.80
2019-04-27T14:12:55.350Z,1.67
2019-04-27T14:17:56.210Z,1.80
2019-04-27T14:23:14.177Z,1.60
2019-04-27T14:28:15.069Z,1.60
2019-04-27T14:33:15.923Z,1.43
2019-04-27T14:38:16.792Z,1.30
2019-04-27T14:43:18.953Z,1.50
2019-04-27T14:48:20.057Z,1.33
2019-04-27T14:53:20.928Z,1.57
2019-04-27T14:58:21.918Z,1.70
2019-04-27T15:03:22.876Z,1.33
2019-04-27T15:08:25.619Z,1.67
2019-04-27T15:13:26.725Z,1.30
2019-04-27T15:18:29.714Z,1.40
2019-04-27T15:23:31.904Z,1.30
2019-04-27T15:28:34.781Z,1.10
2019-04-27T15:33:54.919Z,0.80
2019-04-27T15:39:03.735Z,1.10
2019-04-27T15:44:08.809Z,0.80
2019-04-27T15:49:11.241Z,0.80
2019-04-27T15:54:12.301Z,0.90
2019-04-27T15:59:13.167Z,0.63
2019-04-27T16:04:14.022Z,0.70
2019-04-27T16:09:24.320Z,0.50
2019-04-27T16:14:21.764Z,0.60
2019-04-27T16:19:22.636Z,0.50
2019-04-27T16:24:23.534Z,0.70
2019-04-27T16:29:28.048Z,0.73
2019-04-27T16:34:28.649Z,0.37
2019-04-27T16:39:29.663Z,0.60
2019-04-27T16:44:30.558Z,0.50
2019-04-27T16:49:31.428Z,0.70
2019-04-27T16:54:32.429Z,0.70
2019-04-27T16:59:43.257Z,0.67
2019-04-27T17:04:36.185Z,0.60
2019-04-27T17:09:42.193Z,0.70
2019-04-27T17:14:41.736Z,0.50
2019-04-27T17:19:49.914Z,0.93
2019-04-27T17:24:50.043Z,0.80
2019-04-27T17:29:57.943Z,1.10
2019-04-27T17:34:55.610Z,0.70
2019-04-27T17:39:59.514Z,0.80
2019-04-27T17:45:00.531Z,0.80
2019-04-27T17:50:01.707Z,0.57
2019-04-27T17:55:04.194Z,0.70
2019-04-27T18:00:08.775Z,0.80
2019-04-27T18:05:13.826Z,0.80
2019-04-27T18:10:20.562Z,0.63
2019-04-27T18:15:16.209Z,0.67
2019-04-27T18:20:22.375Z,0.80
2019-04-27T18:25:23.533Z,1.00
2019-04-27T18:30:28.086Z,0.90
2019-04-27T18:35:29.660Z,0.80
2019-04-27T18:40:32.300Z,0.63
2019-04-27T18:45:38.037Z,1.00
2019-04-27T18:50:38.703Z,1.60
2019-04-27T18:55:39.570Z,0.90
2019-04-27T19:00:40.541Z,0.93
2019-04-27T19:05:41.403Z,0.90
2019-04-27T19:10:42.680Z,1.37
2019-04-27T19:15:43.560Z,1.17
2019-04-27T19:20:44.428Z,1.27
2019-04-27T19:25:48.223Z,1.47
2019-04-27T19:31:00.184Z,1.60
2019-04-27T19:36:01.055Z,1.40
2019-04-27T19:41:02.011Z,1.40
2019-04-27T19:46:03.004Z,1.43
2019-04-27T19:51:03.895Z,1.30
2019-04-27T19:56:05.147Z,1.90
2019-04-27T20:01:11.762Z,1.70
2019-04-27T20:06:11.838Z,1.50
2019-04-27T20:11:12.817Z,1.57
2019-04-27T20:16:13.692Z,1.57
2019-04-27T20:21:14.554Z,1.60
2019-04-27T20:26:15.419Z,1.83
2019-04-27T20:31:16.304Z,1.20
2019-04-27T20:36:18.194Z,1.23
2019-04-27T20:41:21.886Z,1.30
2019-04-27T20:46:22.944Z,1.30
2019-04-27T20:51:43.875Z,1.27
2019-04-27T20:56:45.455Z,1.23
2019-04-27T21:01:46.499Z,1.50
2019-04-27T21:06:51.028Z,1.77
2019-04-27T21:11:53.304Z,1.53
2019-04-27T21:16:54.169Z,1.67
2019-04-27T21:21:55.036Z,1.77
2019-04-27T21:26:55.911Z,1.50
2019-04-27T21:31:56.772Z,1.70
2019-04-27T21:36:57.746Z,1.30
2019-04-27T21:41:58.614Z,1.00
2019-04-27T21:47:00.812Z,1.00
2019-04-27T21:52:03.788Z,1.07
2019-04-27T21:57:04.615Z,1.07
2019-04-27T22:02:07.474Z,1.00
2019-04-27T22:07:08.442Z,0.77
2019-04-27T22:12:11.091Z,0.90
2019-04-27T22:17:12.163Z,0.83
2019-04-27T22:22:17.724Z,0.87
2019-04-27T22:27:18.596Z,1.30
2019-04-27T22:32:19.572Z,0.70
2019-04-27T22:37:21.316Z,0.80
2019-04-27T22:42:36.107Z,0.80
2019-04-27T22:47:37.263Z,0.70
2019-04-27T22:52:38.115Z,0.57
2019-04-27T22:57:41.447Z,0.63
2019-04-27T23:02:47.219Z,0.70
2019-04-27T23:07:48.079Z,0.70
